Time;durP1;ratioP1;P1;durP2;ratioP2;P2;SDS_P1;SDS_P2;PMS_P1;PMS_P2;Temp;Humidity;BMP_temperature;BMP_pressure;BME280_temperature;BME280_humidity;BME280_pressure;Samples;Min_cycle;Max_cycle;Signal;HPM_P1;HPM_P2
2023/05/28 00:01:20;;;;;;;16.25;4.90;;;13.50;99.90;;;12.24;100.00;97837.09;4986392;28;20054;-73
2023/05/28 00:03:47;;;;;;;12.55;5.00;;;13.50;99.90;;;12.27;100.00;97844.75;4986104;28;20838;-73
2023/05/28 00:06:16;;;;;;;11.75;4.95;;;13.40;99.90;;;12.38;100.00;97844.28;4991849;28;20050;-73
2023/05/28 00:08:43;;;;;;;11.63;5.00;;;13.40;99.90;;;12.21;100.00;97845.88;4972633;28;20046;-73
2023/05/28 00:11:10;;;;;;;12.48;4.47;;;13.40;99.90;;;12.11;100.00;97844.59;4987223;28;20042;-73
2023/05/28 00:13:37;;;;;;;13.27;4.75;;;13.30;99.90;;;12.07;100.00;97845.66;4992107;28;20709;-73
2023/05/28 00:16:04;;;;;;;11.32;4.55;;;13.30;99.90;;;11.97;100.00;97845.19;4988500;28;20059;-73
2023/05/28 00:18:32;;;;;;;11.85;5.00;;;13.20;99.90;;;12.02;100.00;97839.78;4958466;28;20097;-72
2023/05/28 00:21:00;;;;;;;10.77;4.95;;;13.20;99.90;;;11.83;100.00;97847.53;4992923;28;20141;-73
2023/05/28 00:23:27;;;;;;;13.40;4.78;;;13.10;99.90;;;11.82;100.00;97854.50;5005690;28;20119;-72
2023/05/28 00:25:54;;;;;;;16.38;5.90;;;13.00;99.90;;;11.86;100.00;97844.78;4988715;28;20132;-72
2023/05/28 00:28:21;;;;;;;13.70;5.28;;;13.00;99.90;;;11.75;100.00;97845.28;4988600;28;20149;-72
2023/05/28 00:30:52;;;;;;;11.85;5.53;;;13.00;99.90;;;11.74;100.00;97840.97;4988632;28;20046;-72
2023/05/28 00:33:18;;;;;;;15.05;5.38;;;12.90;99.90;;;11.76;100.00;97849.56;4989892;28;20058;-72
2023/05/28 00:35:46;;;;;;;16.33;6.30;;;12.90;99.90;;;11.67;100.00;97847.34;4987013;28;20062;-73
2023/05/28 00:38:13;;;;;;;12.40;5.97;;;12.90;99.90;;;11.71;100.00;97841.94;4987685;28;20079;-72
2023/05/28 00:40:44;;;;;;;12.80;6.25;;;12.90;99.90;;;11.62;100.00;97841.50;4983501;28;20046;-72
2023/05/28 00:43:11;;;;;;;10.95;5.68;;;12.80;99.90;;;11.58;100.00;97832.13;4990519;28;20074;-72
2023/05/28 00:45:38;;;;;;;10.38;4.93;;;12.80;99.90;;;11.67;100.00;97834.34;4988409;28;20174;-72
2023/05/28 00:48:05;;;;;;;11.88;6.03;;;12.80;99.90;;;11.70;100.00;97829.03;4988375;28;20097;-72
2023/05/28 00:50:33;;;;;;;13.80;6.40;;;12.80;99.90;;;11.47;100.00;97830.84;4969205;28;20053;-72
2023/05/28 00:53:01;;;;;;;25.30;5.95;;;12.80;99.90;;;11.70;100.00;97834.22;4969159;28;20229;-72
2023/05/28 00:55:28;;;;;;;13.57;5.82;;;12.80;99.90;;;11.69;100.00;97832.53;4986350;28;20094;-72
2023/05/28 00:58:03;;;;;;;12.68;6.15;;;12.70;99.90;;;11.55;100.00;97833.13;4982876;28;20050;-72
2023/05/28 01:00:31;;;;;;;14.32;5.95;;;12.70;99.90;;;11.58;100.00;97829.53;4982667;28;20109;-72
2023/05/28 01:02:58;;;;;;;13.45;5.57;;;12.70;99.90;;;11.58;100.00;97839.94;4986601;28;20055;-72
2023/05/28 01:05:25;;;;;;;11.82;5.80;;;12.70;99.90;;;11.48;100.00;97842.09;4988825;28;20185;-72
2023/05/28 01:07:52;;;;;;;16.52;5.00;;;12.70;99.90;;;11.43;100.00;97839.69;4988502;28;20530;-72
2023/05/28 01:10:19;;;;;;;14.07;5.63;;;12.60;99.90;;;11.49;100.00;97836.84;4969311;28;20274;-72
2023/05/28 01:12:47;;;;;;;14.98;5.90;;;12.60;99.90;;;11.43;100.00;97831.88;4982976;28;20050;-72
2023/05/28 01:15:14;;;;;;;13.93;5.15;;;12.60;99.90;;;11.38;100.00;97832.97;4985342;28;20042;-72
2023/05/28 01:17:41;;;;;;;12.88;6.15;;;12.60;99.90;;;11.35;100.00;97840.91;4975682;28;20369;-72
2023/05/28 01:20:12;;;;;;;15.20;5.95;;;12.60;99.90;;;11.28;100.00;97841.16;4988778;28;20054;-72
2023/05/28 01:22:55;;;;;;;13.90;6.00;;;12.60;99.90;;;11.07;100.00;97832.47;4968669;28;20078;-72
2023/05/28 01:25:23;;;;;;;14.65;5.55;;;12.50;99.90;;;11.08;100.00;97836.78;4986879;28;20210;-72
2023/05/28 01:27:51;;;;;;;13.13;5.47;;;12.40;99.90;;;11.09;100.00;97832.44;4979792;28;20077;-73
2023/05/28 01:30:18;;;;;;;12.07;5.30;;;12.30;99.90;;;11.06;100.00;97830.81;4976028;28;20511;-72
2023/05/28 01:32:45;;;;;;;12.75;5.22;;;12.20;99.90;;;10.98;100.00;97838.06;4979782;28;20049;-73
2023/05/28 01:35:12;;;;;;;13.43;5.82;;;12.20;99.90;;;11.03;100.00;97830.06;4970922;28;20153;-72
2023/05/28 01:37:44;;;;;;;14.30;5.60;;;12.20;99.90;;;10.99;100.00;97831.97;4983394;28;20142;-73
2023/05/28 01:40:14;;;;;;;11.52;5.55;;;12.20;99.90;;;10.91;100.00;97828.81;4981199;28;20053;-73
2023/05/28 01:42:42;;;;;;;12.00;5.07;;;12.20;99.90;;;10.81;100.00;97828.34;4988263;28;20055;-72
2023/05/28 01:45:12;;;;;;;12.52;5.72;;;12.10;99.90;;;10.81;100.00;97832.66;4975684;28;20053;-72
2023/05/28 01:47:40;;;;;;;15.00;5.07;;;12.10;99.90;;;10.76;100.00;97834.59;4972703;28;20050;-72
2023/05/28 01:50:08;;;;;;;14.68;5.47;;;12.00;99.90;;;10.69;100.00;97841.78;4957427;28;20046;-72
2023/05/28 01:52:35;;;;;;;13.38;5.95;;;12.00;99.90;;;10.62;100.00;97841.19;4987009;28;20081;-72
2023/05/28 01:55:04;;;;;;;11.93;5.60;;;12.00;99.90;;;10.52;100.00;97845.03;4966703;28;20085;-72
2023/05/28 01:57:31;;;;;;;12.82;5.13;;;11.90;99.90;;;10.45;100.00;97841.84;4986911;28;20051;-72
2023/05/28 01:59:58;;;;;;;15.25;5.88;;;11.90;99.90;;;10.39;100.00;97843.81;4968442;28;20089;-72
2023/05/28 02:02:26;;;;;;;15.43;6.07;;;11.80;99.90;;;10.23;100.00;97844.34;4996454;28;20047;-72
2023/05/28 02:04:54;;;;;;;11.73;5.22;;;11.70;99.90;;;10.26;100.00;97848.56;4988090;28;20050;-72
2023/05/28 02:07:21;;;;;;;13.05;6.28;;;11.70;99.90;;;10.21;100.00;97848.75;4989695;28;20047;-72
2023/05/28 02:09:48;;;;;;;17.05;6.35;;;11.60;99.90;;;10.16;100.00;97853.25;4988064;28;20053;-72
2023/05/28 02:12:15;;;;;;;14.38;5.95;;;11.60;99.90;;;10.13;100.00;97855.13;4976395;28;20283;-72
2023/05/28 02:14:44;;;;;;;12.80;6.32;;;11.50;99.90;;;10.05;100.00;97861.41;4985531;28;20122;-72
2023/05/28 02:17:12;;;;;;;13.32;5.53;;;11.50;99.90;;;10.00;100.00;97860.75;4976817;28;20089;-72
2023/05/28 02:19:39;;;;;;;13.05;6.38;;;11.40;99.90;;;10.02;100.00;97852.91;4988606;28;20054;-72
2023/05/28 02:22:11;;;;;;;10.98;5.50;;;11.40;99.90;;;9.90;100.00;97858.53;4984840;28;20051;-72
2023/05/28 02:24:39;;;;;;;15.45;5.95;;;11.30;99.90;;;9.90;100.00;97855.94;4989568;28;20104;-72
2023/05/28 02:27:09;;;;;;;14.15;5.90;;;11.30;99.90;;;9.82;100.00;97854.47;4973193;28;20070;-72
2023/05/28 02:29:36;;;;;;;11.55;4.88;;;11.20;99.90;;;9.72;100.00;97860.03;4991768;28;20129;-72
2023/05/28 02:32:04;;;;;;;14.32;5.60;;;11.10;99.90;;;9.59;100.00;97862.19;4984688;28;20050;-72
2023/05/28 02:34:31;;;;;;;13.45;6.10;;;11.00;99.90;;;9.58;100.00;97868.28;4972594;28;20050;-72
2023/05/28 02:37:00;;;;;;;13.85;6.30;;;10.90;99.90;;;9.52;100.00;97876.25;4993622;28;20148;-72
2023/05/28 02:39:27;;;;;;;15.02;5.78;;;10.90;99.90;;;9.45;100.00;97862.66;4977395;28;20058;-72
2023/05/28 02:41:54;;;;;;;11.13;5.30;;;10.90;99.90;;;9.44;100.00;97866.13;4972842;28;20105;-72
2023/05/28 02:44:22;;;;;;;13.75;5.80;;;10.80;99.90;;;9.43;100.00;97865.28;4989758;28;20519;-72
2023/05/28 02:46:49;;;;;;;11.27;5.75;;;10.80;99.90;;;9.38;100.00;97861.19;4991977;28;20053;-72
2023/05/28 02:49:16;;;;;;;11.63;5.47;;;10.80;99.90;;;9.32;100.00;97864.81;4966027;28;20084;-72
2023/05/28 02:51:43;;;;;;;11.55;5.50;;;10.70;99.90;;;9.25;100.00;97871.09;4987679;28;20449;-72
2023/05/28 02:54:10;;;;;;;12.68;5.22;;;10.60;99.90;;;9.24;100.00;97874.59;4991315;28;20146;-72
2023/05/28 02:56:37;;;;;;;10.55;5.50;;;10.60;99.90;;;9.22;100.00;97876.38;4992520;28;20058;-72
2023/05/28 02:59:04;;;;;;;13.15;5.60;;;10.50;99.90;;;9.32;100.00;97884.69;4968740;28;20542;-72
2023/05/28 03:01:31;;;;;;;15.82;5.47;;;10.60;99.90;;;9.33;100.00;97879.47;4991135;28;20055;-72
2023/05/28 03:03:58;;;;;;;15.38;5.95;;;10.60;99.90;;;9.28;100.00;97877.91;4989530;28;20057;-72
2023/05/28 03:06:26;;;;;;;12.20;5.32;;;10.60;99.90;;;9.26;100.00;97888.34;4979937;28;20078;-72
2023/05/28 03:08:53;;;;;;;12.75;5.20;;;10.60;99.90;;;9.21;100.00;97887.63;4987459;28;20636;-72
2023/05/28 03:11:20;;;;;;;10.73;5.43;;;10.60;99.90;;;9.20;100.00;97884.19;4974027;28;20392;-71
2023/05/28 03:13:48;;;;;;;16.67;5.78;;;10.60;99.90;;;9.14;100.00;97889.56;4991466;28;20050;-72
2023/05/28 03:16:16;;;;;;;10.88;5.72;;;10.50;99.90;;;9.14;100.00;97889.56;4981110;28;20582;-72
2023/05/28 03:18:43;;;;;;;13.02;5.65;;;10.50;99.90;;;9.02;100.00;97889.09;4994165;28;20049;-72
2023/05/28 03:21:10;;;;;;;11.35;5.25;;;10.50;99.90;;;8.91;100.00;97894.63;4994291;28;20082;-71
2023/05/28 03:23:37;;;;;;;14.95;6.00;;;10.40;99.90;;;8.98;100.00;97890.94;4991316;28;20054;-72
2023/05/28 03:26:04;;;;;;;12.43;5.95;;;10.30;99.90;;;8.99;100.00;97893.50;4986587;28;20533;-72
2023/05/28 03:28:31;;;;;;;9.88;5.13;;;10.30;99.90;;;9.03;100.00;97896.81;4989946;28;20138;-72
2023/05/28 03:30:58;;;;;;;12.25;5.50;;;10.30;99.90;;;8.99;100.00;97893.50;4984457;28;20117;-72
2023/05/28 03:33:25;;;;;;;15.05;5.18;;;10.30;99.90;;;8.90;100.00;97898.13;4990904;28;20669;-71
2023/05/28 03:35:52;;;;;;;15.18;5.70;;;10.30;99.90;;;8.95;100.00;97893.63;4988374;28;20055;-72
2023/05/28 03:38:22;;;;;;;12.02;5.70;;;10.20;99.90;;;8.86;100.00;97901.69;4987325;28;20049;-72
2023/05/28 03:40:49;;;;;;;18.40;6.00;;;10.20;99.90;;;8.77;100.00;97892.44;4988972;28;20078;-71
2023/05/28 03:43:17;;;;;;;13.25;6.05;;;10.20;99.90;;;8.78;100.00;97901.91;4985943;28;20063;-72
2023/05/28 03:45:44;;;;;;;10.60;5.40;;;10.20;99.90;;;8.77;100.00;97897.63;4987780;28;20496;-71
2023/05/28 03:48:11;;;;;;;9.93;5.43;;;10.10;99.90;;;8.76;100.00;97901.13;4983281;28;20078;-71
2023/05/28 03:50:38;;;;;;;11.10;5.10;;;10.10;99.90;;;8.76;100.00;97903.72;4982485;28;20054;-71
2023/05/28 03:53:05;;;;;;;8.90;5.13;;;10.10;99.90;;;8.71;100.00;97902.97;4979133;28;20093;-71
2023/05/28 03:55:35;;;;;;;9.73;5.68;;;10.00;99.90;;;8.77;100.00;97906.22;4987902;28;20129;-72
2023/05/28 03:58:03;;;;;;;11.73;5.38;;;10.00;99.90;;;8.87;100.00;97903.34;4971100;28;20050;-72
2023/05/28 04:00:30;;;;;;;12.57;5.82;;;10.00;99.90;;;8.89;100.00;97904.16;4968745;28;20074;-72
2023/05/28 04:02:57;;;;;;;12.50;6.00;;;10.00;99.90;;;8.90;100.00;97908.47;4989165;28;20566;-71
2023/05/28 04:05:24;;;;;;;12.73;5.68;;;10.00;99.90;;;8.95;100.00;97910.00;4990411;28;20054;-71
2023/05/28 04:07:51;;;;;;;14.77;5.72;;;10.10;99.90;;;8.93;100.00;97900.59;4983336;28;20145;-72
2023/05/28 04:10:18;;;;;;;12.50;5.38;;;10.10;99.90;;;8.94;100.00;97912.63;4989858;28;20100;-72
2023/05/28 04:12:45;;;;;;;12.48;5.85;;;10.20;99.90;;;8.96;100.00;97908.25;4989460;28;20047;-72
2023/05/28 04:15:13;;;;;;;9.77;4.75;;;10.20;99.90;;;8.92;100.00;97915.28;4986774;28;20070;-71
2023/05/28 04:17:40;;;;;;;11.75;4.90;;;10.20;99.90;;;8.94;100.00;97910.03;4979630;28;20046;-71
2023/05/28 04:20:09;;;;;;;10.82;5.35;;;10.20;99.90;;;8.91;100.00;97908.41;4986888;28;20118;-71
2023/05/28 04:22:36;;;;;;;10.85;5.22;;;10.10;99.90;;;8.95;100.00;97907.41;4990594;28;20128;-72
2023/05/28 04:25:04;;;;;;;11.98;5.55;;;10.20;99.90;;;8.97;100.00;97903.03;4990960;28;20050;-72
2023/05/28 04:27:31;;;;;;;14.68;5.20;;;10.20;99.90;;;9.06;100.00;97909.69;4980467;28;20043;-71
2023/05/28 04:29:58;;;;;;;12.60;5.60;;;10.20;99.90;;;9.23;100.00;97909.13;4988266;28;20054;-72
2023/05/28 04:32:27;;;;;;;16.83;5.72;;;10.20;99.90;;;9.18;100.00;97908.44;4986581;28;20046;-72
2023/05/28 04:34:54;;;;;;;12.57;5.40;;;10.30;99.90;;;9.25;100.00;97914.28;4987686;28;20065;-72
2023/05/28 04:37:21;;;;;;;12.52;5.00;;;10.30;99.90;;;9.35;100.00;97911.34;4973312;28;20060;-72
2023/05/28 04:39:49;;;;;;;12.90;5.68;;;10.40;99.90;;;9.59;100.00;97916.63;4978567;28;20058;-72
2023/05/28 04:42:20;;;;;;;12.98;5.75;;;10.50;99.90;;;9.65;100.00;97911.25;4985888;28;20113;-72
2023/05/28 04:44:47;;;;;;;12.73;5.35;;;10.60;99.90;;;9.61;100.00;97914.81;4982476;28;20093;-71
2023/05/28 04:47:14;;;;;;;11.52;5.25;;;10.60;99.90;;;9.79;100.00;97911.63;4991992;28;20058;-72
2023/05/28 04:49:41;;;;;;;10.48;5.40;;;10.70;99.90;;;9.93;100.00;97905.94;4976675;28;20380;-72
2023/05/28 04:52:08;;;;;;;10.98;4.95;;;10.80;99.90;;;9.96;100.00;97907.59;4992607;28;20054;-72
2023/05/28 04:54:36;;;;;;;14.57;4.70;;;10.90;99.90;;;9.96;100.00;97900.66;4985153;28;20138;-72
2023/05/28 04:57:04;;;;;;;12.63;5.57;;;10.90;99.90;;;9.95;100.00;97903.31;4988279;28;20139;-72
2023/05/28 04:59:31;;;;;;;10.27;5.13;;;11.00;99.90;;;10.15;100.00;97908.66;4991560;28;20802;-72
2023/05/28 05:01:59;;;;;;;16.02;5.80;;;;;;;10.37;100.00;97902.69;4988413;28;20480;-72
2023/05/28 05:04:26;;;;;;;15.40;5.55;;;11.20;99.90;;;10.46;100.00;97898.00;4983800;28;20395;-72
2023/05/28 05:06:53;;;;;;;9.90;5.32;;;11.30;99.90;;;10.55;100.00;97896.00;4972221;28;20133;-72
2023/05/28 05:09:20;;;;;;;12.02;5.40;;;11.40;99.90;;;10.70;100.00;97894.56;4986888;28;20046;-73
2023/05/28 05:11:47;;;;;;;12.68;4.85;;;11.50;99.90;;;10.79;100.00;97892.47;4988146;28;20057;-72
2023/05/28 05:14:15;;;;;;;9.68;4.28;;;11.60;99.90;;;10.94;100.00;97890.19;4985628;28;20057;-73
2023/05/28 05:16:42;;;;;;;12.82;5.10;;;11.70;99.90;;;11.15;100.00;97884.13;4962636;28;20055;-72
2023/05/28 05:19:09;;;;;;;14.30;5.07;;;11.80;99.90;;;11.21;100.00;97880.44;4950738;28;20107;-72
2023/05/28 05:21:36;;;;;;;12.80;4.53;;;12.00;99.90;;;11.33;100.00;97876.50;4961168;28;20134;-72
2023/05/28 05:24:04;;;;;;;13.65;5.10;;;12.10;99.90;;;11.53;100.00;97876.53;4962829;28;20529;-72
2023/05/28 05:26:31;;;;;;;12.10;5.22;;;12.20;99.90;;;11.57;100.00;97878.09;4964440;28;20134;-72
2023/05/28 05:28:58;;;;;;;13.48;4.72;;;12.40;99.90;;;11.75;100.00;97866.09;4954874;28;20078;-72
2023/05/28 05:31:25;;;;;;;9.65;4.57;;;12.50;99.90;;;11.84;100.00;97862.25;4967462;28;20053;-72
2023/05/28 05:33:52;;;;;;;14.38;4.80;;;12.60;99.90;;;12.05;100.00;97855.28;4939714;28;20459;-72
2023/05/28 05:36:20;;;;;;;13.93;5.20;;;12.70;99.90;;;12.12;100.00;97856.69;4970282;28;20051;-72
2023/05/28 05:38:47;;;;;;;12.13;4.45;;;12.80;99.90;;;12.18;100.00;97845.16;4955051;28;20082;-72
2023/05/28 05:41:15;;;;;;;16.95;4.55;;;12.90;99.90;;;12.27;100.00;97842.16;4968460;28;20057;-72
2023/05/28 05:43:42;;;;;;;13.07;4.47;;;13.00;99.90;;;12.46;100.00;97840.41;4970752;28;20133;-72
2023/05/28 05:46:09;;;;;;;12.40;4.22;;;13.10;99.90;;;12.62;100.00;97839.72;4970046;28;20130;-73
2023/05/28 05:48:37;;;;;;;8.90;4.40;;;13.20;99.90;;;12.82;100.00;97842.22;4968083;28;20115;-72
2023/05/28 05:51:06;;;;;;;15.00;5.70;;;13.40;99.90;;;12.86;100.00;97835.09;4966620;28;20130;-72
2023/05/28 05:53:40;;;;;;;10.27;4.20;;;13.50;99.90;;;12.98;100.00;97837.13;4955976;28;20460;-72
2023/05/28 05:56:07;;;;;;;10.38;4.40;;;13.60;99.90;;;13.08;100.00;97824.47;4972665;28;20468;-72
2023/05/28 05:58:34;;;;;;;10.10;4.28;;;13.60;99.90;;;13.19;100.00;97827.41;4956418;28;20055;-72
2023/05/28 06:01:01;;;;;;;12.02;4.32;;;13.70;99.90;;;13.30;100.00;97825.16;4968187;28;20528;-72
2023/05/28 06:03:28;;;;;;;9.43;3.85;;;13.90;99.90;;;13.35;100.00;97814.50;4971123;28;20054;-73
2023/05/28 06:05:56;;;;;;;11.10;4.40;;;14.00;99.90;;;13.42;100.00;97815.88;4966645;28;20130;-72
2023/05/28 06:08:23;;;;;;;9.73;4.10;;;14.10;99.90;;;13.67;100.00;97820.69;4951867;28;20070;-73
2023/05/28 06:10:53;;;;;;;12.45;3.97;;;14.20;99.90;;;13.75;100.00;97809.84;4971612;28;20055;-72
2023/05/28 06:13:20;;;;;;;11.52;3.83;;;14.40;99.90;;;13.88;100.00;97815.28;4972463;28;20579;-72
2023/05/28 06:15:48;;;;;;;12.27;3.85;;;14.40;99.90;;;13.88;100.00;97810.91;4981696;28;20074;-72
2023/05/28 06:18:15;;;;;;;9.20;3.97;;;14.60;99.90;;;14.08;100.00;97811.63;4992411;28;20126;-72
2023/05/28 06:20:42;;;;;;;11.20;4.22;;;14.70;99.90;;;14.20;100.00;97813.56;4988922;28;20145;-72
2023/05/28 06:23:10;;;;;;;10.82;4.10;;;14.80;99.90;;;14.31;100.00;97810.41;4989257;28;20046;-72
2023/05/28 06:25:39;;;;;;;9.18;3.72;;;14.90;99.90;;;14.37;100.00;97812.69;4992619;28;20045;-72
2023/05/28 06:28:07;;;;;;;9.95;4.30;;;15.00;99.90;;;14.36;100.00;97806.59;4992617;28;20050;-72
2023/05/28 06:30:34;;;;;;;12.15;3.70;;;15.00;99.90;;;14.44;100.00;97807.03;4989434;28;20069;-72
2023/05/28 06:33:01;;;;;;;10.88;4.00;;;15.10;99.90;;;14.64;100.00;97805.97;4985206;28;20113;-72
2023/05/28 06:35:28;;;;;;;8.65;4.00;;;15.30;99.90;;;14.72;100.00;97808.16;4985395;28;20086;-72
2023/05/28 06:37:55;;;;;;;8.88;3.92;;;15.40;99.90;;;14.64;100.00;97810.34;4969744;28;20066;-72
2023/05/28 06:40:23;;;;;;;9.27;3.50;;;15.50;99.90;;;14.77;100.00;97815.75;4972977;28;20101;-72
2023/05/28 06:42:50;;;;;;;9.15;3.90;;;15.50;99.90;;;14.80;100.00;97805.09;4987611;28;20082;-72
2023/05/28 06:45:18;;;;;;;8.73;3.67;;;15.60;99.90;;;15.14;100.00;97811.03;4974003;28;20053;-72
2023/05/28 06:47:47;;;;;;;8.20;3.72;;;15.70;99.90;;;14.96;100.00;97813.78;4987777;28;20050;-72
2023/05/28 06:50:14;;;;;;;11.55;4.63;;;15.70;99.90;;;15.10;100.00;97806.91;4993424;28;20341;-70
2023/05/28 06:52:42;;;;;;;9.68;3.42;;;15.80;99.90;;;15.19;100.00;97815.09;4990038;28;20137;-73
2023/05/28 06:55:09;;;;;;;9.32;4.20;;;15.90;99.90;;;15.32;100.00;97804.75;4988686;28;20125;-73
2023/05/28 06:57:36;;;;;;;11.90;4.25;;;16.00;99.90;;;15.53;100.00;97812.25;4986891;28;20058;-72
2023/05/28 07:00:16;;;;;;;8.75;3.60;;;16.20;99.90;;;15.51;100.00;97816.75;4993506;28;20050;-71
2023/05/28 07:02:46;;;;;;;9.23;3.72;;;16.20;99.90;;;15.77;100.00;97820.47;4991067;28;20050;-71
2023/05/28 07:05:14;;;;;;;11.55;3.92;;;16.30;99.90;;;15.79;100.00;97814.22;4990017;28;20061;-70
2023/05/28 07:07:42;;;;;;;13.57;3.88;;;16.40;99.90;;;15.95;100.00;97816.75;4980730;28;20077;-71
2023/05/28 07:10:10;;;;;;;9.18;3.80;;;16.60;99.90;;;16.09;100.00;97821.16;4988517;28;20070;-73
2023/05/28 07:12:40;;;;;;;9.98;4.28;;;16.70;99.90;;;15.69;100.00;97820.88;4971437;28;20105;-73
2023/05/28 07:15:08;;;;;;;8.77;3.85;;;16.70;99.90;;;15.75;100.00;97811.88;4991352;28;20058;-73
2023/05/28 07:17:35;;;;;;;8.85;3.83;;;16.70;99.90;;;15.48;100.00;97820.38;4990390;28;20046;-73
2023/05/28 07:20:05;;;;;;;11.90;4.20;;;16.60;99.90;;;15.88;100.00;97812.84;4990106;28;20137;-73
2023/05/28 07:22:32;;;;;;;7.80;3.60;;;16.60;99.90;;;15.76;100.00;97816.16;4998719;28;20050;-71
2023/05/28 07:24:59;;;;;;;9.68;4.13;;;16.60;99.90;;;15.98;100.00;97813.94;4994539;28;20062;-71
2023/05/28 07:27:27;;;;;;;13.10;4.97;;;16.70;99.90;;;16.33;100.00;97817.94;4993169;28;20066;-71
2023/05/28 07:29:56;;;;;;;9.10;3.90;;;16.80;99.90;;;16.42;100.00;97818.25;4989230;28;20046;-71
2023/05/28 07:32:23;;;;;;;8.48;3.60;;;17.00;99.90;;;16.60;100.00;97829.31;4992268;28;20074;-70
2023/05/28 07:34:50;;;;;;;8.48;3.70;;;17.20;99.90;;;16.70;100.00;97822.56;4993707;28;20050;-71
2023/05/28 07:37:17;;;;;;;11.98;3.92;;;17.30;99.90;;;16.79;100.00;97820.31;4995651;28;20101;-71
2023/05/28 07:39:45;;;;;;;9.45;4.32;;;17.40;99.90;;;16.88;100.00;97819.75;4992973;28;20101;-71
2023/05/28 07:42:13;;;;;;;8.27;4.07;;;17.50;99.90;;;16.94;100.00;97821.97;4989529;28;20053;-71
2023/05/28 07:44:40;;;;;;;10.65;4.53;;;17.60;99.90;;;17.05;100.00;97823.91;4991318;28;20077;-71
2023/05/28 07:47:07;;;;;;;9.20;3.85;;;17.70;99.90;;;17.03;100.00;97817.91;4994334;28;20128;-71
2023/05/28 07:49:35;;;;;;;10.77;3.97;;;17.80;99.90;;;16.91;100.00;97820.38;4991577;28;20050;-71
2023/05/28 07:52:01;;;;;;;10.82;4.30;;;17.80;99.90;;;17.05;100.00;97811.63;4968486;28;20097;-71
2023/05/28 07:54:29;;;;;;;9.10;3.67;;;17.80;99.90;;;17.11;100.00;97811.22;4988374;28;20050;-71
2023/05/28 07:56:56;;;;;;;7.13;3.63;;;18.00;99.90;;;17.60;100.00;97814.16;4974669;28;20050;-70
2023/05/28 07:59:23;;;;;;;10.65;4.38;;;18.10;99.90;;;17.92;100.00;97807.56;4967809;28;20046;-70
2023/05/28 08:01:51;;;;;;;8.95;4.05;;;18.30;99.90;;;18.02;100.00;97807.81;4973882;28;20050;-71
2023/05/28 08:04:18;;;;;;;9.30;3.85;;;18.60;99.90;;;18.41;100.00;97799.88;4982679;28;20577;-71
2023/05/28 08:06:45;;;;;;;9.90;3.90;;;18.80;99.90;;;18.48;100.00;97803.75;4966937;28;20050;-71
2023/05/28 08:09:15;;;;;;;11.70;4.35;;;19.10;99.90;;;18.68;100.00;97799.66;4990476;28;20470;-71
2023/05/28 08:11:44;;;;;;;7.80;3.38;;;19.30;99.90;;;18.63;100.00;97800.00;4986676;28;20052;-71
2023/05/28 08:14:11;;;;;;;9.77;4.00;;;19.30;99.90;;;18.59;100.00;97799.38;4996888;28;20054;-71
2023/05/28 08:16:38;;;;;;;7.07;3.05;;;19.50;99.90;;;18.71;100.00;97794.19;4991896;28;20057;-71
2023/05/28 08:19:07;;;;;;;8.93;3.47;;;19.60;99.90;;;19.15;100.00;97795.41;4979007;28;20057;-71
2023/05/28 08:21:33;;;;;;;9.82;3.60;;;19.70;99.90;;;19.03;100.00;97789.25;4983813;28;20130;-71
2023/05/28 08:24:00;;;;;;;6.97;3.20;;;19.70;99.90;;;19.79;100.00;97787.94;4986323;28;20085;-72
2023/05/28 08:26:27;;;;;;;7.90;3.20;;;20.00;99.90;;;19.56;100.00;97783.56;4989173;28;20054;-71
2023/05/28 08:28:55;;;;;;;8.05;3.50;;;20.20;99.90;;;20.01;100.00;97788.91;4988277;28;20140;-71
2023/05/28 08:31:22;;;;;;;9.43;3.47;;;20.30;99.90;;;19.79;100.00;97781.81;4986549;28;20053;-70
2023/05/28 08:33:49;;;;;;;10.00;3.80;;;20.30;99.90;;;20.13;100.00;97782.69;4974151;28;20050;-70
2023/05/28 08:36:16;;;;;;;11.15;3.45;;;20.40;99.90;;;20.75;100.00;97780.47;4988410;28;20049;-70
2023/05/28 08:38:43;;;;;;;7.63;3.25;;;20.50;99.90;;;20.99;100.00;97767.91;4986038;28;20478;-70
2023/05/28 08:41:11;;;;;;;12.23;4.18;;;20.60;99.90;;;21.57;100.00;97758.78;4984750;28;20060;-70
2023/05/28 08:43:39;;;;;;;9.23;3.40;;;20.90;99.90;;;22.01;100.00;97757.63;4973556;28;20487;-70
2023/05/28 08:46:06;;;;;;;9.90;3.63;;;21.20;99.90;;;21.62;100.00;97759.22;4982598;28;20137;-70
2023/05/28 08:48:34;;;;;;;8.55;3.40;;;21.50;99.90;;;22.49;100.00;97762.28;4981594;28;20073;-71
2023/05/28 08:51:02;;;;;;;7.93;3.42;;;21.90;99.90;;;21.85;100.00;97749.31;4986906;28;20093;-70
2023/05/28 08:53:38;;;;;;;8.90;3.53;;;22.40;97.70;;;22.35;100.00;97749.41;4967866;28;20527;-71
2023/05/28 08:56:09;;;;;;;10.05;2.80;;;22.80;97.50;;;22.94;100.00;97745.91;4962699;28;20119;-71
2023/05/28 08:58:38;;;;;;;8.15;3.35;;;23.10;97.10;;;23.14;100.00;97745.91;4970475;28;20050;-71
2023/05/28 09:01:06;;;;;;;7.60;2.95;;;23.70;96.20;;;23.29;100.00;97744.50;4974072;28;20082;-71
2023/05/28 09:03:35;;;;;;;6.88;2.83;;;24.30;95.00;;;23.30;100.00;97740.88;4976671;28;20085;-71
2023/05/28 09:06:03;;;;;;;7.05;3.10;;;24.60;94.20;;;23.73;100.00;97741.34;4991298;28;20042;-71
2023/05/28 09:08:30;;;;;;;7.80;2.75;;;25.00;93.80;;;23.16;100.00;97739.50;4986291;28;20557;-71
2023/05/28 09:10:57;;;;;;;8.38;2.97;;;25.50;91.90;;;24.26;100.00;97738.09;4984855;28;20073;-71
2023/05/28 09:13:26;;;;;;;16.02;3.63;;;25.60;92.60;;;24.74;100.00;97736.16;4991562;28;20646;-71
2023/05/28 09:15:53;;;;;;;7.47;2.72;;;26.10;91.90;;;24.12;97.68;97739.41;4971363;28;20074;-71
2023/05/28 09:18:21;;;;;;;5.82;2.55;;;26.40;88.30;;;24.41;98.27;97743.75;4985758;28;21615;-72
2023/05/28 09:20:49;;;;;;;8.10;2.97;;;26.70;88.40;;;24.21;100.00;97738.53;4949194;28;20106;-71
2023/05/28 09:23:18;;;;;;;18.88;3.95;;;26.70;87.60;;;24.32;99.66;97741.97;4972612;28;20436;-71
2023/05/28 09:25:45;;;;;;;19.52;2.95;;;26.80;86.70;;;23.72;92.90;97739.66;4987448;28;20046;-73
2023/05/28 09:28:13;;;;;;;13.25;3.00;;;26.80;82.70;;;24.58;92.79;97736.81;4989305;28;20051;-72
2023/05/28 09:30:41;;;;;;;6.15;2.47;;;26.60;83.10;;;25.77;87.53;97736.50;4968133;28;20062;-72
2023/05/28 09:33:09;;;;;;;26.27;5.65;;;26.70;82.80;;;25.11;84.30;97730.72;4982865;28;20050;-73
2023/05/28 09:35:36;;;;;;;16.67;3.53;;;27.30;80.40;;;25.28;86.66;97726.38;4981990;28;20093;-72
2023/05/28 09:38:11;;;;;;;7.65;2.40;;;27.40;81.60;;;24.98;83.80;97728.44;4981607;28;20058;-72
2023/05/28 09:40:43;;;;;;;9.07;2.97;;;27.30;78.50;;;25.39;82.58;97723.47;4982277;28;20081;-72
2023/05/28 09:43:11;;;;;;;4.78;2.28;;;27.00;79.50;;;25.13;79.65;97725.22;4968922;28;20063;-72
2023/05/28 09:45:38;;;;;;;13.27;3.25;;;27.10;77.90;;;25.18;79.64;97717.63;4987057;28;20568;-72
2023/05/28 09:48:05;;;;;;;5.38;2.35;;;27.30;77.00;;;25.28;80.69;97715.75;4982530;28;20052;-72
2023/05/28 09:50:32;;;;;;;5.88;2.47;;;27.20;77.40;;;25.09;79.20;97713.22;4992614;28;20043;-72
2023/05/28 09:53:00;;;;;;;8.63;2.65;;;27.30;77.00;;;25.49;83.27;97722.53;4989337;28;20066;-72
2023/05/28 09:55:30;;;;;;;7.93;2.90;;;27.20;78.20;;;25.73;80.49;97716.53;4990585;28;20054;-72
2023/05/28 09:58:06;;;;;;;6.63;2.60;;;27.20;76.60;;;24.78;79.49;97721.59;4990046;28;20235;-72
2023/05/28 10:00:47;;;;;;;32.35;3.53;;;27.30;75.00;;;25.99;81.65;97722.69;4983770;28;20046;-72
2023/05/28 10:03:37;;;;;;;7.10;2.60;;;27.30;78.40;;;26.00;73.47;97716.38;4968717;28;20054;-72
2023/05/28 10:06:11;;;;;;;6.85;2.55;;;27.30;73.60;;;25.97;69.89;97716.69;4984768;28;20062;-72
2023/05/28 10:08:40;;;;;;;8.15;2.40;;;27.00;72.00;;;27.05;71.11;97718.63;4962718;28;20432;-72
2023/05/28 10:11:13;;;;;;;8.20;2.53;;;27.20;74.80;;;26.52;72.89;97715.38;4983066;28;20050;-72
2023/05/28 10:13:41;;;;;;;5.15;1.75;;;27.60;74.50;;;27.23;69.47;97715.84;4984861;28;20061;-72